Archival Weather

Snohomish County (Paine Fld)

Everett, Washington (KPAE)

Report from: Friday, November 17, 2023 7:38 AM PST
Current time: Monday, June 24, 2024 2:35 AM PDT

Current weather – Weather history – Daily summaries
Weather forecast

Temperature1.7°C (35.1°F)
Wind chill-1.1°C (30.1°F)
Dew point0.0°C (32.0°F)
Winds 5 kts (2.6 m/s, 5.8 mph) North (10°)
Visibility10 mi. (16.1 km)
Clouds Scattered clouds 200 ft. (61 m)
Altimeter30.08 in.Hg (1019 mB)
Relative humidity88 %
Density altitude-1,710 ft. (-521 m)
Remarks Automated weather observing station with precipitation discriminator
Flight conditions Visual Meteorological Conditions
Raw dataKPAE 171538Z 01005KT 10SM SCT002 02/00 A3008 RMK AO2 T00170000
An error has occurred. This application may no longer respond until reloaded. Reload 🗙